Airfield :
LOGIN :

Register | Disclaimer

   EN    FR    IT 

 










Legend :    VFR   Marginal VFR   IFR   Intensive IFR   Very Intensive IFR
Visi :
Ceiling :
>= 8 km
>= 3000ft
5 to 8 km
1000 to 3000 ft
1500m to 5 km
500 to 1000 ft
800 to 1500m
200 to 500 ft
< 800m
< 200 ft
Symbols :   Thunderstorms  Fog  Heavy snow  Heavy precipitations  Wind > 20 kt
SIGMETs :     Misc.  Thunderstorms  Icing  Turbulence  Mountain Waves  Volcanic Ashes







- Airport Elevation : 1548 ft


LKNA - Náměšť Air Base

CURRENT METAR :
  • 120800Z 31010KT 9999 -SN SCT048 BKN095 M01/M01 Q1017 NOSIG RMK BLU BLU

EXPIRED METARs :
  • 120700Z 31007KT 7000 -SN BKN033 OVC060 M01/M01 Q1017 NOSIG RMK WHT WHT
  • 120600Z 31007KT 7000 -SN FEW022 OVC047 M01/M01 Q1016 NOSIG

TAF TAF LKNA
Valid from the 12 at 06:00 until the 13 at 06:00 UTC


120500Z 1206/1306 32008KT 9999 -SN FEW016 BKN050
BECMG 1212/1214 9999 BKN050
PROB30
TEMPO 1215/1303 7000 BKN015
BECMG 1218/1220 36004KT
No reported NOTAMs for that airfield.



MET'MAP, your aeronautical weather chart ! - Copyright ORBIFLY December 2007 - Disclaimer

ORBIFLY MET'MAP TEAM :

Programming & Development : Alexandra Zaïnal
Concept & Development : Baudouin d'Aumeries
Co-Development & Prog : Marc-Olivier Méhu
Technical & hardware support : Manuel Goepfert

Contact : metmap@orbifly.com




SOURCES & CREDITS :

   NOAA